Data for 03/26/2018

Time Sea-Level Adjusted Pressure Absolute Pressure Temperature Relative Humidity Dew Point   
(mb) (inHg) (mb) (inHg) (C) (F) (%) (C) (F)
00:05 1015 29.97 844 24.92 -2.9 26.8 75 -6.7 19.9
00:10 1015 29.97 844 24.92 -2.9 26.7 75 -6.7 19.9
00:15 1015 29.97 844 24.92 -3 26.6 75 -6.8 19.8
00:20 1015 29.97 844 24.92 -3 26.5 75 -6.8 19.7
00:25 1015 29.97 844 24.92 -3.1 26.4 75 -6.9 19.6
00:30 1015 29.97 844 24.92 -3.1 26.4 75 -6.9 19.5
00:35 1015 29.97 845 24.95 -3.3 26.1 74 -7.3 18.8
00:40 1015 29.97 845 24.95 -3.5 25.6 74 -7.5 18.5
00:45 1015 29.97 845 24.95 -3.8 25.2 74 -7.7 18.2
00:50 1015 29.97 845 24.95 -3.9 25 74 -7.9 17.8
00:55 1016 30 845 24.95 -3.9 25 72 -8.1 17.4
01:00 1016 30 845 24.95 -3.8 25.1 71 -8.3 17
01:05 1016 30 845 24.95 -3.7 25.4 69 -8.5 16.7
01:10 1016 30 845 24.95 -3.8 25.2 71 -8.3 17.1
01:15 1016 30 845 24.95 -4 24.7 73 -8.2 17.2
01:20 1016 30 845 24.95 -4 24.7 73 -8.2 17.2
01:25 1016 30 845 24.95 -4.1 24.6 75 -8 17.6
01:30 1016 30 845 24.95 -4.2 24.4 75 -8.1 17.5
01:35 1016 30 845 24.95 -4.4 24.1 75 -8.1 17.4
01:40 1016 30 845 24.95 -4.4 24.1 74 -8.3 17
01:45 1016 30 845 24.95 -4.5 23.9 74 -8.4 16.9
01:50 1016 30 845 24.95 -4.6 23.8 76 -8.2 17.3
01:55 1016 30 845 24.95 -4.6 23.8 75 -8.3 17
02:00 1016 30 845 24.95 -4.7 23.5 74 -8.7 16.4
02:05 1016 30 845 24.95 -4.7 23.5 73 -8.9 15.9
02:10 1016 30 845 24.95 -4.7 23.5 73 -8.9 16.1
02:15 1016 30 845 24.95 -4.8 23.3 74 -8.8 16.2
02:20 1016 30 845 24.95 -4.7 23.5 72 -9.1 15.7
02:25 1016 30 845 24.95 -4.6 23.7 72 -8.8 16.1
02:30 1016 30 845 24.95 -4.6 23.6 73 -8.7 16.3
02:35 1016 30 845 24.95 -4.8 23.4 74 -8.8 16.2
02:40 1016 30 845 24.95 -4.8 23.4 74 -8.7 16.4
02:45 1016 30 845 24.95 -5 23.1 75 -8.7 16.3
02:50 1016 30 845 24.95 -5.1 22.8 76 -8.7 16.3
02:55 1016 30 845 24.95 -5.1 22.9 76 -8.6 16.5
03:00 1016 30 845 24.95 -5.1 22.8 76 -8.7 16.3
03:05 1016 30 845 24.95 -5.2 22.7 76 -8.7 16.3
03:10 1016 30 845 24.95 -5.2 22.6 76 -8.9 16
03:15 1016 30 845 24.95 -5.3 22.5 76 -8.9 16
03:20 1016 30 845 24.95 -5.3 22.4 75 -9.1 15.7
03:25 1016 30 845 24.95 -5.4 22.2 77 -8.9 16
03:30 1016 30 845 24.95 -5.4 22.3 76 -8.9 15.9
03:35 1016 30 846 24.98 -5.5 22.1 76 -9.1 15.7
03:40 1016 30 846 24.98 -5.5 22.2 76 -9 15.8
03:45 1016 30 846 24.98 -5.3 22.5 75 -9 15.8
03:50 1017 30.03 846 24.98 -5.1 22.8 75 -8.8 16.1
03:55 1017 30.03 846 24.98 -5 23.1 72 -9.2 15.4
04:00 1017 30.03 846 24.98 -4.9 23.2 72 -9.3 15.3
04:05 1017 30.03 846 24.98 -5.1 22.8 75 -8.9 15.9
04:10 1017 30.03 846 24.98 -5.2 22.6 75 -9 15.9
04:15 1017 30.03 846 24.98 -5.3 22.5 75 -9 15.7
04:20 1017 30.03 846 24.98 -5.5 22.2 75 -9.2 15.4
04:25 1017 30.03 846 24.98 -5.5 22.1 74 -9.4 15.1
04:30 1017 30.03 846 24.98 -5.4 22.3 73 -9.5 14.9
04:35 1017 30.03 846 24.98 -5.2 22.6 72 -9.4 15
04:40 1017 30.03 846 24.98 -5.3 22.5 73 -9.4 15
04:45 1017 30.03 846 24.98 -5.3 22.5 73 -9.4 15.1
04:50 1017 30.03 846 24.98 -5.3 22.4 73 -9.4 15
04:55 1017 30.03 846 24.98 -5.4 22.2 73 -9.5 15
05:00 1017 30.03 846 24.98 -5.4 22.3 73 -9.5 14.9
05:05 1017 30.03 846 24.98 -5.4 22.3 73 -9.6 14.7
05:10 1017 30.03 846 24.98 -5.5 22.1 73 -9.6 14.7
05:15 1017 30.03 846 24.98 -5.7 21.8 74 -9.6 14.7
05:20 1017 30.03 846 24.98 -5.9 21.4 75 -9.6 14.7
05:25 1017 30.03 846 24.98 -5.8 21.5 73 -9.9 14.1
05:30 1017 30.03 846 24.98 -5.7 21.7 72 -9.9 14.1
05:35 1017 30.03 846 24.98 -5.8 21.6 73 -9.9 14.2
05:40 1017 30.03 846 24.98 -6 21.3 74 -9.9 14.2
05:45 1017 30.03 846 24.98 -6 21.2 75 -9.8 14.4
05:50 1017 30.03 847 25.01 -6.2 20.9 77 -9.7 14.6
05:55 1017 30.03 847 25.01 -6.4 20.5 78 -9.7 14.6
06:00 1017 30.03 847 25.01 -6.4 20.4 78 -9.6 14.7
06:05 1017 30.03 847 25.01 -6.3 20.6 78 -9.5 14.8
06:10 1017 30.03 847 25.01 -5.9 21.3 77 -9.4 15.1
06:15 1017 30.03 847 25.01 -5.7 21.7 75 -9.4 15.1
06:20 1017 30.03 847 25.01 -5.7 21.8 75 -9.4 15
06:25 1017 30.03 847 25.01 -6 21.2 76 -9.5 14.9
06:30 1017 30.03 847 25.01 -6.3 20.7 77 -9.6 14.7
06:35 1018 30.06 847 25.01 -6.3 20.7 76 -9.8 14.4
06:40 1018 30.06 847 25.01 -6 21.3 75 -9.7 14.5
06:45 1018 30.06 847 25.01 -6 21.2 75 -9.8 14.3
06:50 1018 30.06 847 25.01 -6 21.2 74 -9.9 14.3
06:55 1018 30.06 847 25.01 -6.2 20.8 76 -9.8 14.4
07:00 1018 30.06 847 25.01 -6.5 20.3 78 -9.7 14.6
07:05 1018 30.06 847 25.01 -6.7 20 79 -9.6 14.6
07:10 1018 30.06 847 25.01 -6.7 19.9 80 -9.6 14.7
07:15 1018 30.06 847 25.01 -6.5 20.3 79 -9.6 14.7
07:20 1018 30.06 847 25.01 -6.3 20.7 78 -9.5 14.9
07:25 1018 30.06 847 25.01 -6.3 20.7 78 -9.5 14.9
07:30 1018 30.06 847 25.01 -6.2 20.8 78 -9.5 15
07:35 1018 30.06 847 25.01 -5.9 21.4 76 -9.5 14.9
07:40 1018 30.06 847 25.01 -5.5 22.2 74 -9.4 15
07:45 1018 30.06 847 25.01 -5.2 22.6 75 -9 15.7
07:50 1018 30.06 847 25.01 -5.3 22.4 73 -9.4 15
07:55 1018 30.06 847 25.01 -5.3 22.4 72 -9.6 14.7
08:00 1018 30.06 847 25.01 -5.1 22.9 71 -9.5 14.8
08:05 1018 30.06 847 25.01 -4.8 23.4 70 -9.5 14.9
08:10 1018 30.06 847 25.01 -4.5 23.9 69 -9.4 15
08:15 1018 30.06 847 25.01 -4.3 24.3 67 -9.4 15
08:20 1018 30.06 847 25.01 -4 24.9 65 -9.6 14.7
08:25 1018 30.06 847 25.01 -3.8 25.1 65 -9.4 15
08:30 1018 30.06 847 25.01 -3.1 26.5 62 -9.4 15.1
08:35 1018 30.06 848 25.04 -2.2 28 61 -8.7 16.3
08:40 1018 30.06 848 25.04 -2.1 28.3 60 -8.8 16.2
08:45 1018 30.06 848 25.04 -2.4 27.7 60 -9.2 15.4
08:50 1018 30.06 848 25.04 -1.9 28.6 57 -9.4 15.1
08:55 1018 30.06 848 25.04 -1.6 29.1 54 -9.7 14.6
09:00 1018 30.06 848 25.04 -1.2 29.9 54 -9.5 15
09:05 1019 30.09 848 25.04 -0.5 31 51 -9.4 15.1
09:10 1019 30.09 848 25.04 -0.4 31.2 54 -8.7 16.3
09:15 1019 30.09 848 25.04 -0.2 31.7 49 -9.7 14.6
09:20 1019 30.09 848 25.04 0.1 32.2 48 -9.7 14.6
09:25 1019 30.09 848 25.04 -0.6 31 53 -9.1 15.7
09:30 1019 30.09 848 25.04 -0.6 30.9 53 -9 15.9
09:35 1019 30.09 848 25.04 0.2 32.4 48 -9.6 14.6
09:40 1019 30.09 848 25.04 0.4 32.7 48 -9.3 15.3
09:45 1019 30.09 848 25.04 0 32 50 -9.3 15.3
09:50 1019 30.09 848 25.04 -0.4 31.3 52 -9.1 15.7
09:55 1019 30.09 848 25.04 0.5 32.9 47 -9.5 15
10:00 1019 30.09 848 25.04 1.1 34 47 -9 15.8
10:05 1019 30.09 848 25.04 0.9 33.6 48 -8.9 16
10:10 1019 30.09 848 25.04 0.5 32.9 50 -8.8 16.1
10:15 1019 30.09 848 25.04 0.2 32.3 49 -9.4 15.1
10:20 1019 30.09 848 25.04 1.1 33.9 45 -9.5 15
10:25 1019 30.09 848 25.04 1.3 34.4 45 -9.2 15.4
10:30 1019 30.09 848 25.04 1.4 34.5 43 -9.8 14.4
10:35 1019 30.09 848 25.04 1.7 35.1 43 -9.7 14.5
10:40 1019 30.09 848 25.04 2.1 35.8 41 -9.7 14.5
10:45 1019 30.09 848 25.04 2.4 36.4 39 -10.1 13.8
10:50 1019 30.09 848 25.04 2.1 35.7 41 -9.7 14.5
10:55 1019 30.09 848 25.04 1.6 34.8 41 -10.4 13.3
11:00 1019 30.09 848 25.04 1.8 35.2 40 -10.5 13.1
11:05 1019 30.09 848 25.04 1.7 35.1 41 -10.1 13.9
11:10 1019 30.09 848 25.04 1.9 35.5 41 -10.1 13.8
11:15 1019 30.09 848 25.04 1.8 35.2 40 -10.4 13.2
11:20 1019 30.09 848 25.04 2.2 36 39 -10.4 13.3
11:25 1019 30.09 848 25.04 2.3 36.1 38 -10.7 12.8
11:30 1018 30.06 848 25.04 2.6 36.7 40 -9.8 14.3
11:35 1019 30.09 848 25.04 2.3 36.1 39 -10.4 13.3
11:40 1019 30.09 848 25.04 3 37.4 37 -10.2 13.6
11:45 1019 30.09 848 25.04 3.3 38 38 -9.6 14.8
11:50 1018 30.06 848 25.04 3.1 37.6 40 -9.3 15.3
11:55 1018 30.06 848 25.04 3 37.5 36 -10.6 12.9
12:00 1018 30.06 848 25.04 3.9 39 34 -10.5 13.1
12:05 1018 30.06 848 25.04 4 39.2 37 -9.5 14.8
12:10 1018 30.06 848 25.04 4 39.3 36 -9.9 14.3
12:15 1018 30.06 848 25.04 3.2 37.8 39 -9.4 15.2
12:20 1018 30.06 848 25.04 3.7 38.7 38 -9.2 15.4
12:25 1018 30.06 848 25.04 3.5 38.2 38 -9.5 14.9
12:30 1018 30.06 848 25.04 2.9 37.1 41 -9.2 15.5
12:35 1018 30.06 848 25.04 2.6 36.7 41 -9.3 15.2
12:40 1018 30.06 848 25.04 3 37.5 39 -9.6 14.8
12:45 1018 30.06 847 25.01 3.6 38.5 37 -9.7 14.6
12:50 1018 30.06 847 25.01 3.2 37.7 37 -10.1 13.8
12:55 1018 30.06 847 25.01 3 37.4 37 -10.2 13.6
13:00 1018 30.06 847 25.01 3.1 37.6 37 -10.4 13.3
13:05 1018 30.06 847 25.01 3.4 38.1 36 -10.5 13.1
13:10 1018 30.06 847 25.01 3.4 38.1 36 -10.3 13.5
13:15 1018 30.06 847 25.01 3 37.5 30 -12.9 8.8
13:20 1018 30.06 847 25.01 3.4 38.1 26 -14.3 6.2
13:25 1018 30.06 847 25.01 3.5 38.3 26 -14.2 6.5
13:30 1018 30.06 847 25.01 3.1 37.6 27 -14.1 6.7
13:35 1018 30.06 847 25.01 3.1 37.5 29 -13.2 8.2
13:40 1018 30.06 847 25.01 2.8 37 32 -12.3 9.9
13:45 1018 30.06 847 25.01 2.5 36.5 32 -12.4 9.6
13:50 1018 30.06 847 25.01 2.1 35.7 32 -12.8 8.9
13:55 1018 30.06 847 25.01 2.2 35.9 34 -12 10.3
14:00 1018 30.06 847 25.01 2 35.7 37 -11.2 11.8
14:05 1018 30.06 847 25.01 2.7 36.8 31 -13 8.6
14:10 1018 30.06 847 25.01 2.7 36.8 30 -13.2 8.3
14:15 1018 30.06 847 25.01 2.9 37.2 30 -13.2 8.2
14:20 1018 30.06 848 25.04 3.4 38.1 30 -12.5 9.5
14:25 1018 30.06 848 25.04 3.1 37.7 32 -12.2 10
14:30 1018 30.06 847 25.01 3.5 38.3 29 -13 8.6
14:35 1018 30.06 847 25.01 3.7 38.7 29 -12.7 9.2
14:40 1018 30.06 847 25.01 3.8 38.9 28 -13.2 8.2
14:45 1018 30.06 847 25.01 3.3 38 26 -14.3 6.3
14:50 1018 30.06 847 25.01 3.4 38.1 27 -14.1 6.6
14:55 1018 30.06 847 25.01 3.7 38.6 25 -14.5 5.9
15:00 1018 30.06 847 25.01 3.3 38 27 -13.9 6.9
15:05 1018 30.06 847 25.01 3.6 38.5 27 -13.6 7.4
15:10 1018 30.06 847 25.01 3.5 38.3 28 -13.4 7.9
15:15 1018 30.06 847 25.01 3.8 38.8 26 -13.9 7
15:20 1018 30.06 847 25.01 4 39.2 25 -14.1 6.6
15:25 1018 30.06 847 25.01 3.9 39 26 -14.2 6.5
15:30 1018 30.06 847 25.01 3.9 39.1 25 -14.2 6.4
15:35 1018 30.06 847 25.01 4.4 39.9 26 -13.6 7.5
15:40 1018 30.06 847 25.01 4 39.2 26 -14.1 6.6
15:45 1018 30.06 847 25.01 4.1 39.3 26 -13.6 7.4
15:50 1018 30.06 847 25.01 4.2 39.6 25 -14 6.9
15:55 1018 30.06 847 25.01 4.3 39.8 27 -13.1 8.4
16:00 1018 30.06 847 25.01 4.6 40.4 24 -14.2 6.5
16:05 1018 30.06 847 25.01 4.6 40.2 25 -13.9 7
16:10 1018 30.06 847 25.01 4.3 39.7 26 -13.7 7.3
16:15 1018 30.06 847 25.01 4.4 40 25 -14.1 6.6
16:20 1018 30.06 847 25.01 4.8 40.7 25 -13.9 7
16:25 1018 30.06 847 25.01 4.6 40.2 24 -14.2 6.5
16:30 1018 30.06 847 25.01 4.3 39.7 25 -14.3 6.3
16:35 1018 30.06 847 25.01 4.6 40.4 24 -14.1 6.6
16:40 1018 30.06 848 25.04 4.6 40.2 23 -14.7 5.6
16:45 1018 30.06 848 25.04 4.2 39.6 25 -14.4 6.2
16:50 1018 30.06 848 25.04 3.8 38.8 25 -14.6 5.8
16:55 1018 30.06 848 25.04 4.2 39.5 27 -13.3 8
17:00 1018 30.06 848 25.04 4.1 39.5 25 -14.4 6
17:05 1018 30.06 848 25.04 3.9 39 26 -14.2 6.5
17:10 1018 30.06 848 25.04 3.7 38.6 25 -14.4 6.1
17:15 1019 30.09 848 25.04 4.1 39.4 26 -13.9 7
17:20 1018 30.06 848 25.04 4.3 39.8 25 -14 6.8
17:25 1018 30.06 848 25.04 4.4 39.9 26 -13.6 7.5
17:30 1019 30.09 848 25.04 4.1 39.3 26 -13.6 7.5
17:35 1018 30.06 848 25.04 3.9 38.9 26 -14.1 6.6
17:40 1019 30.09 848 25.04 3.7 38.7 25 -14.6 5.8
17:45 1019 30.09 848 25.04 3.9 39 25 -14.4 6.1
17:50 1019 30.09 848 25.04 4 39.2 28 -13.1 8.4
17:55 1019 30.09 848 25.04 3.8 38.8 28 -13.4 7.9
18:00 1019 30.09 848 25.04 3.9 39 27 -13.7 7.4
18:05 1019 30.09 848 25.04 4.3 39.7 25 -13.9 7
18:10 1019 30.09 848 25.04 4.5 40.1 25 -14.1 6.6
18:15 1019 30.09 848 25.04 4.4 40 27 -12.9 8.7
18:20 1019 30.09 848 25.04 3.7 38.6 29 -12.8 9
18:25 1019 30.09 848 25.04 3.4 38.1 28 -13.4 7.9
18:30 1019 30.09 848 25.04 3.4 38.1 30 -12.7 9.1
18:35 1019 30.09 848 25.04 3.2 37.7 30 -12.8 9
18:40 1019 30.09 848 25.04 3.2 37.8 28 -13.6 7.6
18:45 1019 30.09 848 25.04 3.5 38.2 28 -13.3 8.1
18:50 1019 30.09 848 25.04 3.5 38.4 29 -12.9 8.8
18:55 1019 30.09 848 25.04 3.4 38.2 30 -12.4 9.6
19:00 1019 30.09 848 25.04 3.5 38.3 30 -12.7 9.1
19:05 1019 30.09 848 25.04 3.5 38.4 30 -12.5 9.6
19:10 1019 30.09 848 25.04 3.6 38.4 29 -12.8 8.9
19:15 1019 30.09 848 25.04 3.5 38.3 30 -12.6 9.3
19:20 1019 30.09 848 25.04 3.5 38.2 28 -13.5 7.6
19:25 1019 30.09 848 25.04 3.4 38.1 28 -13.4 7.9
19:30 1019 30.09 848 25.04 3.3 37.9 29 -13.1 8.5
19:35 1019 30.09 849 25.07 3.1 37.5 30 -12.8 9
19:40 1019 30.09 849 25.07 2.9 37.2 31 -12.6 9.4
19:45 1019 30.09 849 25.07 2.7 36.9 32 -12.4 9.7
19:50 1019 30.09 849 25.07 2.5 36.5 33 -12.2 10
19:55 1019 30.09 849 25.07 2.4 36.2 34 -12 10.3
20:00 1019 30.09 849 25.07 2.2 35.9 35 -11.9 10.5
20:05 1019 30.09 849 25.07 2.1 35.7 34 -12.3 9.9
20:10 1019 30.09 849 25.07 2 35.5 36 -11.7 10.9
20:15 1019 30.09 849 25.07 1.7 35 36 -12 10.5
20:20 1020 30.12 849 25.07 1.5 34.6 35 -12.3 9.8
20:25 1020 30.12 849 25.07 1.2 34.1 36 -12.2 10.1
20:30 1020 30.12 849 25.07 1 33.8 37 -12.3 9.9
20:35 1020 30.12 849 25.07 1 33.9 36 -12.4 9.8
20:40 1020 30.12 849 25.07 1.1 33.9 36 -12.4 9.6
20:45 1020 30.12 849 25.07 1 33.8 36 -12.6 9.3
20:50 1020 30.12 849 25.07 0.9 33.7 36 -12.6 9.3
20:55 1020 30.12 849 25.07 0.7 33.3 37 -12.3 9.8
21:00 1020 30.12 849 25.07 0.6 33.1 37 -12.5 9.4
21:05 1020 30.12 849 25.07 0.5 33 36 -12.8 9
21:10 1020 30.12 849 25.07 0.6 33.1 36 -12.8 8.9
21:15 1020 30.12 849 25.07 0.6 33.1 36 -12.7 9.1
21:20 1020 30.12 849 25.07 0.5 33 35 -13.2 8.3
21:25 1020 30.12 849 25.07 0.6 33.1 34 -13.4 7.8
21:30 1020 30.12 849 25.07 0.6 33.1 35 -13.3 8.1
21:35 1020 30.12 849 25.07 0.6 33.2 34 -13.6 7.5
21:40 1020 30.12 849 25.07 0.6 33.1 34 -13.4 7.8
21:45 1020 30.12 849 25.07 0.5 33 35 -13.3 8.1
21:50 1020 30.12 849 25.07 0.4 32.6 36 -13 8.6
21:55 1020 30.12 849 25.07 0.1 32.2 38 -12.6 9.3
22:00 1020 30.12 849 25.07 -0.1 31.9 39 -12.5 9.5
22:05 1020 30.12 849 25.07 -0.2 31.6 39 -12.6 9.3
22:10 1020 30.12 849 25.07 -0.4 31.4 40 -12.3 9.9
22:15 1020 30.12 849 25.07 -0.5 31.1 42 -12 10.3
22:20 1020 30.12 849 25.07 -0.6 30.9 41 -12.3 9.9
22:25 1020 30.12 850 25.1 -0.6 30.8 44 -11.5 11.2
22:30 1020 30.12 849 25.07 -1 30.3 44 -11.6 11
22:35 1020 30.12 849 25.07 -1 30.2 41 -12.7 9.1
22:40 1020 30.12 849 25.07 -0.4 31.3 40 -12.5 9.5
22:45 1020 30.12 849 25.07 -0.3 31.5 42 -11.8 10.7
22:50 1020 30.12 849 25.07 -0.5 31.1 45 -11 12.2
22:55 1020 30.12 849 25.07 -0.8 30.5 47 -10.7 12.7
23:00 1020 30.12 849 25.07 -1.1 30 49 -10.5 13.1
23:05 1020 30.12 849 25.07 -1.2 29.8 49 -10.5 13.1
23:10 1020 30.12 849 25.07 -1.3 29.7 49 -10.7 12.8
23:15 1020 30.12 849 25.07 -1.2 29.8 48 -11 12.2
23:20 1020 30.12 849 25.07 -1.2 29.9 49 -10.5 13
23:25 1020 30.12 849 25.07 -1.3 29.6 50 -10.5 13.2
23:30 1020 30.12 849 25.07 -1.4 29.5 50 -10.6 12.9
23:35 1020 30.12 849 25.07 -1.4 29.5 50 -10.7 12.8
23:40 1020 30.12 850 25.1 -1.5 29.3 50 -10.7 12.7
23:45 1020 30.12 850 25.1 -1.5 29.2 50 -10.6 12.9
23:50 1020 30.12 850 25.1 -1.5 29.2 50 -10.7 12.7
23:55 1020 30.12 850 25.1 -1.5 29.3 50 -10.5 13.1
24:00 1021 30.15 850 25.1 -1.6 29.1 53 -10 14